createdAt,value
2022-12-11T00:01:20.093Z,34.88
2022-12-11T00:03:49.250Z,31.23
2022-12-11T00:06:19.230Z,29.38
2022-12-11T00:08:47.592Z,27.27
2022-12-11T00:11:17.043Z,29.55
2022-12-11T00:13:45.457Z,33.20
2022-12-11T00:16:13.811Z,29.77
2022-12-11T00:18:44.631Z,32.28
2022-12-11T00:21:15.983Z,29.63
2022-12-11T00:23:45.332Z,31.83
2022-12-11T00:26:15.567Z,31.38
2022-12-11T00:28:45.115Z,33.60
2022-12-11T00:31:18.474Z,35.25
2022-12-11T00:33:49.968Z,34.63
2022-12-11T00:36:24.506Z,33.72
2022-12-11T00:38:53.919Z,35.70
2022-12-11T00:41:22.407Z,33.35
2022-12-11T00:43:50.721Z,33.55
2022-12-11T00:46:19.084Z,33.80
2022-12-11T00:48:49.881Z,36.08
2022-12-11T00:51:18.620Z,34.38
2022-12-11T00:53:46.996Z,34.67
2022-12-11T00:56:19.478Z,32.05
2022-12-11T00:58:48.747Z,31.00
2022-12-11T01:01:20.832Z,34.05
2022-12-11T01:03:50.172Z,32.70
2022-12-11T01:06:21.754Z,32.53
2022-12-11T01:09:14.074Z,30.45
2022-12-11T01:11:43.320Z,31.55
2022-12-11T01:14:12.963Z,30.70
2022-12-11T01:16:41.369Z,29.85
2022-12-11T01:19:09.692Z,31.40
2022-12-11T01:21:37.873Z,31.23
2022-12-11T01:24:06.409Z,30.80
2022-12-11T01:26:34.677Z,29.25
2022-12-11T01:29:02.975Z,29.95
2022-12-11T01:31:31.165Z,31.23
2022-12-11T01:33:59.397Z,30.00
2022-12-11T01:36:28.365Z,28.00
2022-12-11T01:38:57.085Z,24.83
2022-12-11T01:41:25.375Z,24.02
2022-12-11T01:44:01.561Z,23.80
2022-12-11T01:46:31.265Z,23.67
2022-12-11T01:49:02.351Z,24.83
2022-12-11T01:51:32.978Z,23.75
2022-12-11T01:54:09.144Z,22.63
2022-12-11T01:56:39.860Z,23.45
2022-12-11T01:59:10.146Z,24.63
2022-12-11T02:02:01.297Z,25.08
2022-12-11T02:04:31.663Z,25.27
2022-12-11T02:06:59.955Z,23.10
2022-12-11T02:09:35.703Z,22.48
2022-12-11T02:12:26.881Z,23.90
2022-12-11T02:15:15.553Z,21.63
2022-12-11T02:18:14.280Z,23.10
2022-12-11T02:20:54.352Z,24.48
2022-12-11T02:23:50.228Z,23.05
2022-12-11T02:26:41.902Z,20.42
2022-12-11T02:29:16.137Z,20.52
2022-12-11T02:32:04.749Z,19.73
2022-12-11T02:34:44.805Z,17.50
2022-12-11T02:37:20.579Z,17.95
2022-12-11T02:39:51.993Z,17.55
2022-12-11T02:42:21.539Z,19.77
2022-12-11T02:44:52.978Z,16.98
2022-12-11T02:47:22.278Z,17.35
2022-12-11T02:49:51.895Z,15.57
2022-12-11T02:52:23.792Z,15.38
2022-12-11T02:54:55.986Z,15.32
2022-12-11T02:57:33.914Z,13.35
2022-12-11T03:00:02.245Z,12.55
2022-12-11T03:02:30.739Z,11.82
2022-12-11T03:04:59.543Z,9.50
2022-12-11T03:07:33.526Z,9.82
2022-12-11T03:10:01.770Z,7.82
2022-12-11T03:12:32.925Z,7.53
2022-12-11T03:15:08.246Z,7.55
2022-12-11T03:17:54.852Z,7.75
2022-12-11T03:20:35.971Z,6.75
2022-12-11T03:23:23.912Z,7.35
2022-12-11T03:25:55.197Z,6.45
2022-12-11T03:28:40.538Z,6.70
2022-12-11T03:31:12.786Z,6.43
2022-12-11T03:33:49.011Z,5.22
2022-12-11T03:36:23.320Z,6.03
2022-12-11T03:39:13.402Z,4.30
2022-12-11T03:41:44.654Z,4.20
2022-12-11T03:44:13.890Z,4.32
2022-12-11T03:46:46.303Z,4.60
2022-12-11T03:49:23.625Z,3.37
2022-12-11T03:51:54.910Z,3.83
2022-12-11T03:54:24.887Z,3.03
2022-12-11T03:56:57.873Z,2.85
2022-12-11T03:59:26.180Z,3.22
2022-12-11T04:01:54.387Z,3.45
2022-12-11T04:04:22.652Z,2.40
2022-12-11T04:06:50.878Z,1.90
2022-12-11T04:09:19.159Z,1.70
2022-12-11T04:11:47.399Z,1.48
2022-12-11T04:14:34.192Z,1.58
2022-12-11T04:17:02.440Z,1.40
2022-12-11T04:19:49.369Z,1.70
2022-12-11T04:22:37.987Z,2.00
2022-12-11T04:25:08.161Z,1.65
2022-12-11T04:30:28.055Z,1.67
2022-12-11T04:32:59.085Z,1.60
2022-12-11T04:35:27.720Z,1.63
2022-12-11T04:37:55.893Z,1.63
2022-12-11T04:40:24.442Z,1.50
2022-12-11T04:42:52.743Z,1.40
2022-12-11T04:45:20.932Z,1.25
2022-12-11T04:47:49.111Z,1.33
2022-12-11T04:50:17.408Z,1.10
2022-12-11T04:52:45.631Z,1.00
2022-12-11T04:55:14.550Z,1.00
2022-12-11T04:57:42.899Z,1.10
2022-12-11T05:00:13.249Z,1.40
2022-12-11T05:02:42.635Z,1.70
2022-12-11T05:05:11.976Z,1.23
2022-12-11T05:07:41.107Z,1.50
2022-12-11T05:10:09.888Z,1.40
2022-12-11T05:12:38.121Z,1.27
2022-12-11T05:15:06.703Z,1.58
2022-12-11T05:17:34.909Z,1.45
2022-12-11T05:20:03.519Z,1.30
2022-12-11T05:22:32.136Z,1.30
2022-12-11T05:25:03.357Z,1.40
2022-12-11T05:27:31.630Z,1.55
2022-12-11T05:29:59.903Z,1.73
2022-12-11T05:32:28.860Z,1.27
2022-12-11T05:34:57.089Z,1.35
2022-12-11T05:37:25.286Z,1.17
2022-12-11T05:39:53.553Z,1.20
2022-12-11T05:42:25.519Z,0.90
2022-12-11T05:44:56.967Z,1.00
2022-12-11T05:47:25.613Z,0.80
2022-12-11T05:49:53.814Z,1.00
2022-12-11T05:52:21.981Z,1.00
2022-12-11T05:54:50.838Z,1.10
2022-12-11T05:57:18.924Z,1.00
2022-12-11T05:59:47.282Z,0.95
2022-12-11T06:02:15.522Z,1.25
2022-12-11T06:04:43.778Z,1.00
2022-12-11T06:07:11.998Z,0.70
2022-12-11T06:09:40.257Z,0.80
2022-12-11T06:12:08.530Z,1.30
2022-12-11T06:14:36.795Z,0.90
2022-12-11T06:17:05.010Z,0.80
2022-12-11T06:19:36.711Z,0.85
2022-12-11T06:22:05.757Z,0.63
2022-12-11T06:24:34.032Z,0.85
2022-12-11T06:27:02.282Z,0.60
2022-12-11T06:29:30.483Z,0.63
2022-12-11T06:31:58.676Z,0.60
2022-12-11T06:34:27.184Z,0.80
2022-12-11T06:36:55.374Z,0.65
2022-12-11T06:39:23.638Z,1.00
2022-12-11T06:41:51.858Z,0.80
2022-12-11T06:44:20.083Z,0.70
2022-12-11T06:46:48.340Z,0.60
2022-12-11T06:49:16.582Z,0.70
2022-12-11T06:51:44.689Z,0.57
2022-12-11T06:54:13.909Z,0.60
2022-12-11T06:56:42.116Z,0.60
2022-12-11T06:59:13.299Z,0.85
2022-12-11T07:01:41.523Z,0.77
2022-12-11T07:04:10.141Z,0.80
2022-12-11T07:06:38.370Z,0.75
2022-12-11T07:09:06.874Z,0.60
2022-12-11T07:11:35.064Z,0.70
2022-12-11T07:14:04.763Z,0.70
2022-12-11T07:16:33.073Z,0.73
2022-12-11T07:19:01.386Z,0.70
2022-12-11T07:21:29.679Z,0.70
2022-12-11T07:23:58.811Z,1.10
2022-12-11T07:26:27.617Z,0.93
2022-12-11T07:29:00.318Z,0.70
2022-12-11T07:31:30.077Z,0.90
2022-12-11T07:34:06.036Z,0.68
2022-12-11T07:36:35.398Z,0.98
2022-12-11T07:39:03.794Z,0.80
2022-12-11T07:41:31.985Z,0.80
2022-12-11T07:44:01.488Z,1.00
2022-12-11T07:46:32.137Z,1.30
2022-12-11T07:49:03.965Z,0.90
2022-12-11T07:51:35.512Z,1.00
2022-12-11T07:54:10.751Z,1.17
2022-12-11T07:56:42.938Z,0.88
2022-12-11T07:59:12.269Z,1.23
2022-12-11T08:01:42.204Z,1.15
2022-12-11T08:04:12.715Z,0.85
2022-12-11T08:06:42.823Z,1.48
2022-12-11T08:09:21.316Z,1.90
2022-12-11T08:11:59.522Z,1.73
2022-12-11T08:14:27.953Z,1.77
2022-12-11T08:16:57.904Z,1.70
2022-12-11T08:19:27.862Z,1.60
2022-12-11T08:21:56.068Z,1.85
2022-12-11T08:24:24.310Z,1.45
2022-12-11T08:26:52.499Z,1.60
2022-12-11T08:29:20.736Z,1.80
2022-12-11T08:31:48.941Z,1.65
2022-12-11T08:34:17.237Z,1.52
2022-12-11T08:36:45.681Z,1.85
2022-12-11T08:39:14.038Z,1.65
2022-12-11T08:41:42.194Z,1.92
2022-12-11T08:44:16.525Z,1.60
2022-12-11T08:46:45.677Z,1.95
2022-12-11T08:49:17.656Z,1.52
2022-12-11T08:51:45.857Z,2.00
2022-12-11T08:54:14.069Z,1.92
2022-12-11T08:56:42.342Z,2.33
2022-12-11T08:59:10.913Z,1.98
2022-12-11T09:01:39.507Z,2.20
2022-12-11T09:04:09.354Z,2.08
2022-12-11T09:06:37.677Z,1.98
2022-12-11T09:09:06.317Z,2.20
2022-12-11T09:11:36.434Z,2.40
2022-12-11T09:14:07.829Z,3.08
2022-12-11T09:16:41.939Z,2.33
2022-12-11T09:19:17.933Z,2.17
2022-12-11T09:21:51.537Z,2.10
2022-12-11T09:24:19.744Z,1.90
2022-12-11T09:26:50.440Z,1.80
2022-12-11T09:29:21.057Z,1.70
2022-12-11T09:31:50.084Z,2.03
2022-12-11T09:34:24.780Z,1.92
2022-12-11T09:36:57.438Z,1.75
2022-12-11T09:39:25.899Z,1.90
2022-12-11T09:41:59.917Z,2.00
2022-12-11T09:44:43.535Z,2.22
2022-12-11T09:49:47.923Z,3.38
2022-12-11T09:52:44.973Z,3.80
2022-12-11T09:55:24.304Z,4.07
2022-12-11T09:58:24.541Z,3.90
2022-12-11T10:01:08.838Z,3.05
2022-12-11T10:03:53.227Z,2.75
2022-12-11T10:09:44.268Z,3.88
2022-12-11T10:12:38.292Z,3.85
2022-12-11T10:15:20.641Z,3.70
2022-12-11T10:17:51.656Z,3.97
2022-12-11T10:20:29.122Z,3.58
2022-12-11T10:22:58.498Z,3.35
2022-12-11T10:25:48.017Z,3.38
2022-12-11T10:28:18.721Z,4.07
2022-12-11T10:31:13.671Z,4.00
2022-12-11T10:34:03.762Z,4.45
2022-12-11T10:36:37.219Z,4.00
2022-12-11T10:39:17.791Z,4.07
2022-12-11T10:41:49.108Z,3.65
2022-12-11T10:44:31.471Z,5.40
2022-12-11T10:47:11.765Z,5.55
2022-12-11T10:49:51.923Z,4.35
2022-12-11T10:52:26.909Z,4.38
2022-12-11T10:55:04.119Z,5.00
2022-12-11T10:57:35.766Z,4.13
2022-12-11T11:00:07.408Z,4.63
2022-12-11T11:02:41.471Z,5.00
2022-12-11T11:05:36.609Z,4.60
2022-12-11T11:08:21.557Z,4.60
2022-12-11T11:10:58.538Z,4.88
2022-12-11T11:13:29.192Z,4.93
2022-12-11T11:16:06.545Z,4.88
2022-12-11T11:18:35.397Z,4.65
2022-12-11T11:21:04.497Z,5.35
2022-12-11T11:23:34.314Z,5.00
2022-12-11T11:26:07.650Z,4.75
2022-12-11T11:31:16.345Z,5.03
2022-12-11T11:33:57.586Z,4.90
2022-12-11T11:36:29.275Z,6.30
2022-12-11T11:39:06.234Z,5.97
2022-12-11T11:41:56.104Z,5.20
2022-12-11T11:44:35.926Z,5.80
2022-12-11T11:47:17.365Z,5.65
2022-12-11T11:49:51.482Z,5.18
2022-12-11T11:52:45.457Z,5.97
2022-12-11T11:55:27.881Z,5.53
2022-12-11T11:58:25.677Z,5.15
2022-12-11T12:00:56.716Z,6.15
2022-12-11T12:03:26.087Z,5.10
2022-12-11T12:06:18.933Z,5.38
2022-12-11T12:08:52.721Z,6.10
2022-12-11T12:11:39.670Z,5.57
2022-12-11T12:14:51.642Z,4.43
2022-12-11T12:17:55.399Z,3.97
2022-12-11T12:20:33.180Z,3.80
2022-12-11T12:23:14.242Z,3.70
2022-12-11T12:26:18.802Z,3.95
2022-12-11T12:28:49.037Z,3.90
2022-12-11T12:31:28.932Z,3.58
2022-12-11T12:34:17.948Z,4.07
2022-12-11T12:36:56.753Z,3.22
2022-12-11T12:39:36.994Z,3.90
2022-12-11T12:42:17.122Z,3.47
2022-12-11T12:44:59.504Z,3.05
2022-12-11T12:47:32.557Z,3.05
2022-12-11T12:50:03.186Z,2.72
2022-12-11T12:52:37.326Z,2.83
2022-12-11T12:55:25.480Z,2.60
2022-12-11T12:58:00.584Z,3.00
2022-12-11T13:00:46.790Z,3.58
2022-12-11T13:03:21.025Z,2.72
2022-12-11T13:06:02.476Z,3.20
2022-12-11T13:08:49.004Z,3.08
2022-12-11T13:11:20.793Z,3.33
2022-12-11T13:14:18.093Z,3.17
2022-12-11T13:16:49.039Z,3.45
2022-12-11T13:19:42.253Z,2.97
2022-12-11T13:22:14.336Z,3.30
2022-12-11T13:24:52.689Z,3.28
2022-12-11T13:27:35.681Z,3.42
2022-12-11T13:30:14.536Z,3.10
2022-12-11T13:32:53.893Z,2.97
2022-12-11T13:35:22.095Z,3.25
2022-12-11T13:37:52.179Z,3.65
2022-12-11T13:40:25.871Z,3.47
2022-12-11T13:43:02.049Z,4.50
2022-12-11T13:45:50.623Z,4.38
2022-12-11T13:48:38.186Z,3.70
2022-12-11T13:51:07.237Z,3.15
2022-12-11T13:53:36.686Z,3.10
2022-12-11T13:56:19.104Z,3.40
2022-12-11T13:58:48.648Z,3.28
2022-12-11T14:01:22.853Z,2.95
2022-12-11T14:04:14.560Z,3.08
2022-12-11T14:06:42.974Z,3.45
2022-12-11T14:09:20.541Z,3.85
2022-12-11T14:11:55.040Z,3.63
2022-12-11T14:14:53.716Z,4.05
2022-12-11T14:17:26.795Z,3.72
2022-12-11T14:19:57.587Z,4.25
2022-12-11T14:22:28.488Z,4.07
2022-12-11T14:25:03.666Z,3.90
2022-12-11T14:27:33.252Z,4.00
2022-12-11T14:30:12.444Z,8.18
2022-12-11T14:32:45.147Z,7.43
2022-12-11T14:35:25.793Z,5.25
2022-12-11T14:37:56.809Z,5.22
2022-12-11T14:40:30.188Z,4.28
2022-12-11T14:43:07.581Z,10.45
2022-12-11T14:45:39.933Z,5.15
2022-12-11T14:48:18.323Z,6.83
2022-12-11T14:50:53.217Z,5.68
2022-12-11T14:53:29.855Z,5.07
2022-12-11T14:56:03.048Z,5.75
2022-12-11T15:01:01.526Z,6.65
2022-12-11T15:03:35.694Z,4.88
2022-12-11T15:06:24.203Z,6.95
2022-12-11T15:08:52.607Z,6.60
2022-12-11T15:11:22.123Z,4.22
2022-12-11T15:14:02.907Z,3.90
2022-12-11T15:16:34.590Z,5.38
2022-12-11T15:19:05.541Z,5.30
2022-12-11T15:21:36.806Z,6.45
2022-12-11T15:24:07.119Z,4.03
2022-12-11T15:26:44.100Z,4.60
2022-12-11T15:29:39.773Z,6.18
2022-12-11T15:32:10.741Z,4.97
2022-12-11T15:34:46.508Z,4.57
2022-12-11T15:37:36.610Z,5.97
2022-12-11T15:40:05.954Z,5.93
2022-12-11T15:42:40.199Z,5.53
2022-12-11T15:45:15.599Z,4.70
2022-12-11T15:47:45.070Z,5.57
2022-12-11T15:50:19.193Z,5.88
2022-12-11T15:52:47.991Z,5.32
2022-12-11T15:55:17.287Z,5.03
2022-12-11T15:57:59.639Z,5.43
2022-12-11T16:00:28.270Z,5.90
2022-12-11T16:02:57.833Z,5.95
2022-12-11T16:05:26.983Z,5.88
2022-12-11T16:07:59.384Z,6.50
2022-12-11T16:10:31.118Z,6.00
2022-12-11T16:12:59.751Z,5.93
2022-12-11T16:15:28.842Z,6.90
2022-12-11T16:18:14.047Z,6.32
2022-12-11T16:20:44.625Z,6.88
2022-12-11T16:23:14.796Z,6.72
2022-12-11T16:25:44.297Z,6.45
2022-12-11T16:28:15.251Z,6.50
2022-12-11T16:30:47.032Z,6.93
2022-12-11T16:33:15.560Z,6.88
2022-12-11T16:35:43.899Z,6.90
2022-12-11T16:38:12.968Z,7.70
2022-12-11T16:40:41.668Z,7.53
2022-12-11T16:43:13.489Z,7.72
2022-12-11T16:45:43.011Z,7.63
2022-12-11T16:48:11.200Z,8.13
2022-12-11T16:50:40.567Z,8.70
2022-12-11T16:53:08.829Z,8.90
2022-12-11T16:55:39.164Z,8.45
2022-12-11T16:58:08.173Z,9.18
2022-12-11T17:00:36.349Z,8.98
2022-12-11T17:03:04.921Z,10.02
2022-12-11T17:05:33.226Z,8.93
2022-12-11T17:08:04.484Z,8.80
2022-12-11T17:10:34.441Z,9.00
2022-12-11T17:13:02.618Z,9.30
2022-12-11T17:15:30.980Z,8.40
2022-12-11T17:17:59.262Z,7.88
2022-12-11T17:20:27.446Z,7.95
2022-12-11T17:22:55.595Z,7.38
2022-12-11T17:25:23.814Z,7.20
2022-12-11T17:27:51.962Z,6.38
2022-12-11T17:30:20.106Z,6.82
2022-12-11T17:32:49.079Z,6.75
2022-12-11T17:35:19.529Z,7.30
2022-12-11T17:37:47.743Z,6.90
2022-12-11T17:40:18.902Z,7.03
2022-12-11T17:42:47.597Z,6.05
2022-12-11T17:45:15.894Z,7.03
2022-12-11T17:47:44.457Z,6.40
2022-12-11T17:50:12.654Z,7.75
2022-12-11T17:52:44.147Z,8.50
2022-12-11T17:55:13.062Z,7.90
2022-12-11T17:57:41.562Z,7.30
2022-12-11T18:00:12.808Z,7.38
2022-12-11T18:02:40.987Z,6.63
2022-12-11T18:05:09.465Z,8.18
2022-12-11T18:07:41.286Z,7.45
2022-12-11T18:10:09.610Z,7.07
2022-12-11T18:12:37.979Z,8.43
2022-12-11T18:15:06.683Z,7.45
2022-12-11T18:17:35.448Z,7.65
2022-12-11T18:20:04.734Z,8.18
2022-12-11T18:22:35.679Z,8.90
2022-12-11T18:25:09.808Z,8.23
2022-12-11T18:27:39.369Z,9.25
2022-12-11T18:30:08.307Z,9.43
2022-12-11T18:32:36.496Z,9.75
2022-12-11T18:35:05.673Z,10.23
2022-12-11T18:37:34.012Z,11.43
2022-12-11T18:40:04.961Z,13.02
2022-12-11T18:42:33.853Z,12.43
2022-12-11T18:45:02.481Z,11.73
2022-12-11T18:47:30.803Z,11.23
2022-12-11T18:50:02.601Z,11.13
2022-12-11T18:52:34.251Z,10.95
2022-12-11T18:55:02.785Z,10.07
2022-12-11T18:57:31.054Z,9.98
2022-12-11T19:00:07.031Z,10.63
2022-12-11T19:02:35.691Z,9.25
2022-12-11T19:05:04.109Z,8.80
2022-12-11T19:07:32.415Z,10.80
2022-12-11T19:10:00.680Z,9.95
2022-12-11T19:12:28.844Z,10.20
2022-12-11T19:14:57.077Z,10.15
2022-12-11T19:17:25.254Z,10.95
2022-12-11T19:19:53.465Z,10.52
2022-12-11T19:22:21.694Z,9.80
2022-12-11T19:24:49.896Z,12.15
2022-12-11T19:27:18.170Z,11.18
2022-12-11T19:29:46.325Z,12.90
2022-12-11T19:32:14.596Z,12.80
2022-12-11T19:34:42.769Z,11.95
2022-12-11T19:37:11.067Z,12.52
2022-12-11T19:39:40.424Z,12.82
2022-12-11T19:42:08.628Z,13.27
2022-12-11T19:44:36.830Z,11.95
2022-12-11T19:47:05.438Z,13.40
2022-12-11T19:49:33.867Z,13.65
2022-12-11T19:52:02.090Z,13.25
2022-12-11T19:54:30.311Z,13.60
2022-12-11T19:56:58.613Z,14.73
2022-12-11T19:59:26.812Z,14.88
2022-12-11T20:01:55.216Z,14.68
2022-12-11T20:04:24.481Z,14.48
2022-12-11T20:06:52.859Z,16.13
2022-12-11T20:09:21.361Z,15.48
2022-12-11T20:11:49.847Z,16.17
2022-12-11T20:14:25.078Z,14.00
2022-12-11T20:17:11.353Z,15.85
2022-12-11T20:19:42.042Z,15.18
2022-12-11T20:22:10.769Z,16.75
2022-12-11T20:24:39.073Z,16.00
2022-12-11T20:27:07.325Z,15.70
2022-12-11T20:29:35.574Z,15.52
2022-12-11T20:32:05.200Z,15.88
2022-12-11T20:34:33.504Z,16.45
2022-12-11T20:37:02.435Z,16.55
2022-12-11T20:39:32.058Z,16.27
2022-12-11T20:42:01.293Z,16.65
2022-12-11T20:44:29.486Z,15.73
2022-12-11T20:46:57.697Z,15.98
2022-12-11T20:49:25.933Z,16.27
2022-12-11T20:51:54.208Z,17.83
2022-12-11T20:54:22.430Z,18.13
2022-12-11T20:56:51.413Z,17.30
2022-12-11T20:59:19.888Z,15.15
2022-12-11T21:01:49.282Z,17.00
2022-12-11T21:04:17.729Z,15.80
2022-12-11T21:06:46.024Z,15.45
2022-12-11T21:09:17.936Z,14.95
2022-12-11T21:11:46.387Z,16.17
2022-12-11T21:14:18.451Z,15.18
2022-12-11T21:16:47.461Z,16.08
2022-12-11T21:19:20.355Z,15.18
2022-12-11T21:21:49.291Z,15.32
2022-12-11T21:24:26.652Z,15.13
2022-12-11T21:26:59.638Z,15.07
2022-12-11T21:29:29.404Z,16.05
2022-12-11T21:31:57.917Z,15.43
2022-12-11T21:34:26.602Z,15.23
2022-12-11T21:36:57.021Z,15.52
2022-12-11T21:39:28.524Z,15.80
2022-12-11T21:41:58.205Z,15.60
2022-12-11T21:47:15.758Z,15.15
2022-12-11T21:49:44.968Z,14.95
2022-12-11T21:52:14.112Z,15.32
2022-12-11T21:54:42.655Z,14.70
2022-12-11T21:57:10.974Z,15.07
2022-12-11T21:59:39.151Z,15.45
2022-12-11T22:02:07.657Z,14.38
2022-12-11T22:04:37.054Z,15.05
2022-12-11T22:07:05.273Z,17.67
2022-12-11T22:09:33.484Z,15.82
2022-12-11T22:12:01.799Z,16.38
2022-12-11T22:14:31.332Z,16.73
2022-12-11T22:17:00.825Z,15.93
2022-12-11T22:19:32.482Z,15.65
2022-12-11T22:22:01.171Z,17.17
2022-12-11T22:24:29.322Z,16.67
2022-12-11T22:26:57.580Z,15.80
2022-12-11T22:29:25.819Z,16.52
2022-12-11T22:31:54.589Z,17.42
2022-12-11T22:34:23.011Z,16.75
2022-12-11T22:36:51.282Z,17.13
2022-12-11T22:39:19.665Z,17.38
2022-12-11T22:41:47.980Z,15.88
2022-12-11T22:44:18.663Z,16.65
2022-12-11T22:46:50.276Z,16.58
2022-12-11T22:49:20.373Z,16.10
2022-12-11T22:51:49.386Z,17.05
2022-12-11T22:54:17.594Z,16.58
2022-12-11T22:56:46.076Z,16.55
2022-12-11T22:59:14.654Z,17.05
2022-12-11T23:01:43.293Z,17.65
2022-12-11T23:04:11.583Z,18.13
2022-12-11T23:06:39.904Z,17.42
2022-12-11T23:09:08.579Z,17.42
2022-12-11T23:11:38.929Z,18.45
2022-12-11T23:14:13.381Z,16.73
2022-12-11T23:16:42.130Z,17.27
2022-12-11T23:19:13.481Z,17.00
2022-12-11T23:21:41.839Z,17.58
2022-12-11T23:24:10.879Z,17.48
2022-12-11T23:26:39.685Z,17.65
2022-12-11T23:29:08.419Z,16.02
2022-12-11T23:31:37.097Z,17.10
2022-12-11T23:34:05.274Z,17.13
2022-12-11T23:36:34.678Z,17.15
2022-12-11T23:39:03.476Z,16.67
2022-12-11T23:41:31.787Z,15.93
2022-12-11T23:44:00.521Z,17.77
2022-12-11T23:46:28.871Z,16.17
2022-12-11T23:48:57.370Z,15.63
2022-12-11T23:51:26.172Z,15.65
2022-12-11T23:53:54.765Z,15.27
2022-12-11T23:56:26.256Z,15.18
2022-12-11T23:58:55.853Z,16.30
